createdAt,value
2023-03-26T00:02:23.439Z,69.32
2023-03-26T00:04:54.406Z,69.96
2023-03-26T00:07:22.705Z,69.46
2023-03-26T00:09:50.612Z,69.04
2023-03-26T00:12:18.730Z,68.54
2023-03-26T00:14:46.746Z,68.53
2023-03-26T00:17:14.592Z,68.21
2023-03-26T00:19:43.088Z,68.22
2023-03-26T00:22:14.278Z,68.32
2023-03-26T00:24:45.959Z,67.80
2023-03-26T00:27:14.610Z,67.70
2023-03-26T00:29:42.627Z,67.92
2023-03-26T00:32:10.799Z,68.33
2023-03-26T00:34:41.326Z,68.23
2023-03-26T00:37:12.552Z,68.48
2023-03-26T00:39:42.795Z,68.22
2023-03-26T00:42:11.249Z,67.44
2023-03-26T00:44:39.907Z,67.86
2023-03-26T00:47:07.837Z,68.17
2023-03-26T00:49:35.866Z,68.67
2023-03-26T00:52:04.037Z,68.53
2023-03-26T00:54:31.985Z,68.56
2023-03-26T00:57:01.551Z,68.42
2023-03-26T00:59:30.427Z,67.91
2023-03-26T01:01:58.505Z,67.57
2023-03-26T01:04:30.547Z,67.50
2023-03-26T01:07:02.742Z,67.73
2023-03-26T01:09:35.778Z,66.97
2023-03-26T01:12:07.885Z,67.30
2023-03-26T01:14:36.307Z,66.69
2023-03-26T01:17:07.118Z,66.89
2023-03-26T01:19:41.680Z,66.82
2023-03-26T01:22:12.201Z,66.45
2023-03-26T01:24:43.715Z,66.46
2023-03-26T01:27:20.731Z,66.40
2023-03-26T01:29:55.669Z,66.34
2023-03-26T01:32:38.741Z,65.45
2023-03-26T01:35:19.106Z,65.11
2023-03-26T01:37:59.523Z,65.36
2023-03-26T01:40:38.670Z,65.24
2023-03-26T01:43:13.394Z,64.83
2023-03-26T01:45:45.991Z,65.28
2023-03-26T01:48:14.737Z,65.36
2023-03-26T01:50:43.045Z,64.83
2023-03-26T01:53:14.629Z,64.41
2023-03-26T01:55:56.053Z,64.19
2023-03-26T01:58:35.881Z,63.93
2023-03-26T02:01:16.863Z,63.56
2023-03-26T02:03:52.276Z,62.81
2023-03-26T02:06:30.773Z,63.31
2023-03-26T02:09:03.024Z,62.83
2023-03-26T02:11:35.962Z,62.17
2023-03-26T02:14:06.181Z,62.43
2023-03-26T02:16:34.380Z,62.09
2023-03-26T02:19:02.523Z,62.17
2023-03-26T02:21:34.077Z,62.16
2023-03-26T02:24:04.227Z,61.64
2023-03-26T02:26:39.041Z,61.53
2023-03-26T02:29:13.344Z,60.93
2023-03-26T02:31:43.686Z,59.88
2023-03-26T02:34:11.654Z,60.15
2023-03-26T02:36:42.861Z,60.24
2023-03-26T02:39:11.985Z,59.95
2023-03-26T02:41:42.475Z,59.62
2023-03-26T02:44:13.281Z,59.54
2023-03-26T02:46:59.659Z,60.20
2023-03-26T02:49:50.897Z,59.71
2023-03-26T02:52:33.690Z,59.50
2023-03-26T02:55:01.629Z,60.33
2023-03-26T02:57:31.560Z,60.11
2023-03-26T03:00:17.181Z,59.66
2023-03-26T03:03:06.650Z,59.85
2023-03-26T03:05:56.616Z,59.72
2023-03-26T03:08:39.486Z,60.00
2023-03-26T03:11:33.126Z,60.23
2023-03-26T03:14:03.917Z,60.48
2023-03-26T03:16:34.604Z,60.74
2023-03-26T03:19:11.984Z,60.84
2023-03-26T03:21:42.128Z,60.71
2023-03-26T03:24:11.611Z,60.82
2023-03-26T03:26:45.838Z,60.42
2023-03-26T03:29:24.819Z,60.46
2023-03-26T03:31:52.887Z,60.47
2023-03-26T03:34:38.702Z,60.22
2023-03-26T03:37:07.345Z,60.71
2023-03-26T03:39:51.496Z,60.61
2023-03-26T03:42:22.182Z,60.42
2023-03-26T03:44:54.537Z,60.69
2023-03-26T03:47:42.869Z,61.01
2023-03-26T03:50:12.309Z,60.95
2023-03-26T03:52:49.197Z,61.58
2023-03-26T03:55:18.228Z,61.20
2023-03-26T03:57:51.622Z,61.19
2023-03-26T04:00:24.383Z,60.85
2023-03-26T04:03:14.278Z,60.23
2023-03-26T04:05:43.780Z,60.67
2023-03-26T04:08:12.095Z,61.09
2023-03-26T04:10:47.137Z,60.35
2023-03-26T04:13:18.944Z,60.58
2023-03-26T04:16:02.937Z,60.35
2023-03-26T04:18:32.408Z,60.21
2023-03-26T04:21:07.604Z,60.06
2023-03-26T04:23:36.461Z,60.03
2023-03-26T04:26:17.444Z,59.54
2023-03-26T04:29:11.934Z,59.61
2023-03-26T04:31:43.282Z,59.59
2023-03-26T04:34:24.185Z,60.13
2023-03-26T04:37:16.854Z,59.76
2023-03-26T04:39:50.169Z,59.43
2023-03-26T04:42:41.738Z,59.41
2023-03-26T04:45:23.022Z,59.33
2023-03-26T04:47:59.209Z,58.97
2023-03-26T04:50:28.024Z,58.74
2023-03-26T04:52:58.524Z,59.00
2023-03-26T04:55:50.793Z,58.25
2023-03-26T04:58:33.112Z,58.14
2023-03-26T05:01:10.563Z,58.47
2023-03-26T05:03:45.845Z,58.18
2023-03-26T05:06:17.768Z,58.19
2023-03-26T05:08:46.294Z,58.01
2023-03-26T05:11:24.620Z,58.00
2023-03-26T05:13:52.972Z,57.68
2023-03-26T05:16:22.546Z,57.64
2023-03-26T05:18:58.505Z,57.21
2023-03-26T05:21:31.365Z,56.93
2023-03-26T05:23:59.437Z,56.52
2023-03-26T05:26:27.497Z,55.96
2023-03-26T05:28:55.721Z,55.97
2023-03-26T05:31:33.577Z,55.85
2023-03-26T05:34:04.976Z,55.96
2023-03-26T05:36:33.457Z,54.92
2023-03-26T05:39:25.816Z,54.77
2023-03-26T05:42:23.193Z,54.70
2023-03-26T05:45:03.952Z,54.95
2023-03-26T05:47:34.734Z,54.71
2023-03-26T05:50:06.132Z,54.15
2023-03-26T05:52:35.965Z,53.78
2023-03-26T05:55:22.330Z,53.78
2023-03-26T05:58:19.582Z,54.05
2023-03-26T06:01:08.932Z,53.76
2023-03-26T06:03:57.466Z,54.48
2023-03-26T06:06:31.184Z,54.23
2023-03-26T06:09:00.992Z,54.43
2023-03-26T06:11:32.098Z,54.63
2023-03-26T06:14:01.801Z,54.15
2023-03-26T06:16:30.320Z,54.63
2023-03-26T06:19:10.123Z,55.16
2023-03-26T06:21:52.570Z,54.95
2023-03-26T06:24:24.087Z,55.00
2023-03-26T06:27:14.888Z,54.88
2023-03-26T06:30:16.286Z,54.72
2023-03-26T06:33:01.525Z,55.22
2023-03-26T06:35:34.799Z,55.03
2023-03-26T06:38:05.399Z,54.73
2023-03-26T06:40:34.654Z,54.68
2023-03-26T06:43:23.196Z,54.72
2023-03-26T06:46:10.879Z,54.52
2023-03-26T06:48:59.614Z,54.50
2023-03-26T06:51:47.925Z,53.81
2023-03-26T06:54:36.048Z,53.98
2023-03-26T06:57:33.688Z,54.50
2023-03-26T07:00:39.729Z,53.65
2023-03-26T07:03:26.261Z,53.69
2023-03-26T07:06:20.241Z,53.83
2023-03-26T07:08:48.200Z,53.60
2023-03-26T07:11:41.067Z,53.45
2023-03-26T07:14:30.509Z,52.68
2023-03-26T07:17:21.555Z,52.75
2023-03-26T07:20:07.230Z,53.30
2023-03-26T07:22:36.459Z,53.43
2023-03-26T07:25:17.182Z,51.71
2023-03-26T07:27:54.336Z,51.86
2023-03-26T07:30:45.693Z,51.81
2023-03-26T07:33:50.164Z,50.24
2023-03-26T07:36:45.468Z,50.26
2023-03-26T07:39:44.001Z,50.48
2023-03-26T07:42:35.503Z,50.91
2023-03-26T07:45:29.389Z,50.32
2023-03-26T07:48:13.777Z,50.10
2023-03-26T07:50:58.573Z,49.78
2023-03-26T07:53:49.623Z,49.76
2023-03-26T07:56:42.138Z,49.32
2023-03-26T07:59:35.332Z,49.57
2023-03-26T08:02:43.310Z,49.31
2023-03-26T08:05:35.338Z,48.76
2023-03-26T08:08:39.720Z,49.45
2023-03-26T08:11:38.542Z,48.88
2023-03-26T08:14:21.830Z,48.28
2023-03-26T08:16:56.049Z,48.69
2023-03-26T08:19:40.908Z,48.38
2023-03-26T08:22:15.456Z,48.01
2023-03-26T08:24:53.889Z,47.60
2023-03-26T08:27:30.555Z,47.56
2023-03-26T08:30:07.520Z,47.37
2023-03-26T08:32:35.936Z,47.69
2023-03-26T08:35:09.344Z,48.07
2023-03-26T08:37:37.259Z,47.42
2023-03-26T08:40:06.689Z,47.11
2023-03-26T08:43:10.608Z,47.09
2023-03-26T08:46:23.646Z,46.72
2023-03-26T08:49:10.951Z,46.96
2023-03-26T08:52:28.848Z,47.11
2023-03-26T08:55:47.585Z,46.83
2023-03-26T08:59:07.427Z,46.63
2023-03-26T09:02:08.771Z,47.50
2023-03-26T09:05:21.661Z,47.05
2023-03-26T09:08:20.506Z,46.56
2023-03-26T09:10:59.356Z,45.61
2023-03-26T09:14:19.896Z,46.07
2023-03-26T09:17:29.439Z,47.04
2023-03-26T09:20:34.970Z,46.13
2023-03-26T09:23:48.476Z,45.50
2023-03-26T09:26:46.249Z,45.68
2023-03-26T09:29:44.525Z,45.73
2023-03-26T09:32:44.083Z,45.52
2023-03-26T09:35:37.837Z,45.57
2023-03-26T09:38:18.234Z,45.34
2023-03-26T09:40:59.846Z,46.13
2023-03-26T09:43:52.978Z,45.46
2023-03-26T09:46:36.788Z,46.18
2023-03-26T09:49:28.989Z,46.19
2023-03-26T09:52:10.047Z,47.00
2023-03-26T09:55:08.483Z,46.07
2023-03-26T09:57:53.988Z,46.54
2023-03-26T10:00:36.574Z,46.64
2023-03-26T10:03:25.135Z,45.89
2023-03-26T10:06:13.599Z,45.78
2023-03-26T10:08:57.492Z,45.53
2023-03-26T10:11:33.304Z,43.90
2023-03-26T10:14:15.031Z,44.15
2023-03-26T10:16:53.807Z,44.75
2023-03-26T10:19:37.811Z,44.17
2023-03-26T10:22:17.719Z,44.82
2023-03-26T10:25:01.413Z,45.65
2023-03-26T10:27:41.065Z,45.00
2023-03-26T10:30:29.614Z,44.85
2023-03-26T10:33:09.106Z,44.20
2023-03-26T10:35:48.352Z,44.25
2023-03-26T10:38:30.874Z,44.29
2023-03-26T10:41:05.920Z,44.97
2023-03-26T10:44:10.499Z,44.41
2023-03-26T10:47:15.573Z,44.29
2023-03-26T10:50:29.996Z,43.28
2023-03-26T10:53:03.257Z,43.36
2023-03-26T10:55:38.584Z,43.61
2023-03-26T10:58:16.157Z,44.35
2023-03-26T11:00:49.450Z,43.18
2023-03-26T11:03:35.779Z,42.89
2023-03-26T11:06:11.900Z,44.42
2023-03-26T11:08:49.595Z,44.72
2023-03-26T11:11:28.651Z,44.01
2023-03-26T11:14:06.789Z,43.72
2023-03-26T11:16:49.553Z,43.25
2023-03-26T11:19:26.267Z,44.45
2023-03-26T11:22:02.958Z,43.96
2023-03-26T11:25:01.623Z,44.22
2023-03-26T11:27:48.370Z,43.26
2023-03-26T11:30:28.786Z,42.98
2023-03-26T11:33:00.323Z,44.66
2023-03-26T11:35:39.452Z,43.50
2023-03-26T11:38:17.695Z,42.95
2023-03-26T11:40:51.108Z,42.26
2023-03-26T11:43:39.147Z,42.31
2023-03-26T11:46:11.280Z,43.29
2023-03-26T11:48:44.209Z,44.23
2023-03-26T11:51:19.323Z,41.84
2023-03-26T11:53:47.593Z,41.97
2023-03-26T11:56:24.746Z,41.02
2023-03-26T11:58:58.007Z,41.08
2023-03-26T12:01:30.468Z,41.04
2023-03-26T12:04:04.178Z,41.76
2023-03-26T12:06:34.525Z,41.60
2023-03-26T12:09:03.974Z,40.74
2023-03-26T12:11:35.591Z,41.39
2023-03-26T12:14:05.933Z,41.75
2023-03-26T12:16:36.391Z,41.57
2023-03-26T12:19:07.317Z,41.45
2023-03-26T12:21:46.901Z,40.99
2023-03-26T12:24:29.376Z,40.06
2023-03-26T12:27:03.072Z,41.90
2023-03-26T12:29:34.577Z,41.49
2023-03-26T12:32:08.665Z,41.44
2023-03-26T12:34:39.454Z,41.86
2023-03-26T12:37:36.703Z,40.22
2023-03-26T12:40:27.344Z,40.66
2023-03-26T12:44:49.161Z,40.62
2023-03-26T12:45:46.216Z,40.16
2023-03-26T12:48:35.558Z,41.58
2023-03-26T12:51:15.361Z,41.45
2023-03-26T12:53:59.979Z,40.28
2023-03-26T12:56:38.510Z,41.15
2023-03-26T12:59:22.883Z,41.87
2023-03-26T13:01:56.871Z,41.02
2023-03-26T13:04:40.427Z,42.36
2023-03-26T13:07:20.039Z,44.50
2023-03-26T13:10:27.124Z,44.95
2023-03-26T13:13:12.080Z,44.79
2023-03-26T13:15:44.147Z,43.97
2023-03-26T13:18:25.360Z,43.59
2023-03-26T13:21:02.327Z,43.24
2023-03-26T13:23:43.363Z,44.51
2023-03-26T13:26:27.646Z,45.25
2023-03-26T13:29:04.815Z,45.19
2023-03-26T13:31:38.195Z,43.79
2023-03-26T13:34:16.074Z,43.52
2023-03-26T13:36:54.660Z,43.01
2023-03-26T13:39:31.818Z,42.19
2023-03-26T13:42:38.092Z,41.45
2023-03-26T13:45:17.462Z,41.45
2023-03-26T13:47:50.695Z,41.80
2023-03-26T13:50:26.830Z,40.39
2023-03-26T13:53:02.505Z,41.45
2023-03-26T13:55:36.103Z,40.64
2023-03-26T13:58:13.392Z,41.96
2023-03-26T14:00:54.578Z,42.35
2023-03-26T14:03:30.656Z,43.04
2023-03-26T14:06:05.148Z,41.56
2023-03-26T14:08:38.295Z,41.42
2023-03-26T14:11:11.041Z,41.78
2023-03-26T14:13:48.584Z,40.64
2023-03-26T14:16:21.634Z,40.23
2023-03-26T14:18:58.378Z,40.69
2023-03-26T14:21:58.006Z,40.70
2023-03-26T14:25:00.625Z,40.97
2023-03-26T14:27:44.363Z,42.12
2023-03-26T14:30:30.039Z,41.52
2023-03-26T14:33:13.254Z,41.60
2023-03-26T14:35:52.970Z,41.17
2023-03-26T14:38:41.100Z,40.00
2023-03-26T14:41:24.297Z,40.45
2023-03-26T14:44:13.935Z,41.87
2023-03-26T14:46:56.015Z,42.77
2023-03-26T14:49:43.646Z,43.43
2023-03-26T14:52:18.636Z,44.80
2023-03-26T14:54:51.730Z,42.44
2023-03-26T14:57:38.334Z,41.64
2023-03-26T15:00:38.224Z,42.09
2023-03-26T15:03:48.895Z,42.51
2023-03-26T15:06:50.150Z,42.35
2023-03-26T15:09:50.876Z,42.83
2023-03-26T15:12:35.973Z,42.85
2023-03-26T15:15:34.785Z,43.60
2023-03-26T15:18:46.037Z,43.85
2023-03-26T15:21:45.453Z,43.41
2023-03-26T15:24:38.194Z,43.76
2023-03-26T15:27:31.416Z,44.70
2023-03-26T15:30:38.650Z,43.63
2023-03-26T15:33:48.879Z,42.85
2023-03-26T15:37:01.618Z,43.62
2023-03-26T15:40:07.299Z,43.14
2023-03-26T15:42:46.734Z,42.67
2023-03-26T15:45:23.200Z,43.43
2023-03-26T15:48:05.460Z,42.23
2023-03-26T15:50:43.108Z,41.56
2023-03-26T15:53:23.485Z,40.46
2023-03-26T15:56:06.679Z,41.21
2023-03-26T15:58:46.057Z,40.48
2023-03-26T16:01:23.702Z,41.12
2023-03-26T16:03:59.600Z,41.27
2023-03-26T16:06:31.925Z,41.31
2023-03-26T16:09:22.010Z,42.10
2023-03-26T16:11:54.980Z,41.54
2023-03-26T16:14:24.991Z,41.94
2023-03-26T16:16:56.833Z,41.09
2023-03-26T16:19:41.004Z,41.80
2023-03-26T16:22:15.090Z,40.66
2023-03-26T16:25:01.995Z,41.17
2023-03-26T16:28:10.338Z,42.09
2023-03-26T16:30:39.672Z,40.99
2023-03-26T16:33:15.896Z,39.56
2023-03-26T16:36:18.415Z,40.61
2023-03-26T16:38:55.466Z,41.07
2023-03-26T16:41:28.272Z,41.56
2023-03-26T16:44:14.178Z,41.93
2023-03-26T16:46:50.718Z,42.41
2023-03-26T16:49:30.387Z,41.38
2023-03-26T16:52:07.543Z,41.32
2023-03-26T16:57:28.075Z,42.15
2023-03-26T17:00:24.695Z,42.26
2023-03-26T17:03:06.215Z,42.26
2023-03-26T17:05:38.035Z,43.44
2023-03-26T17:08:16.347Z,43.31
2023-03-26T17:10:57.878Z,43.91
2023-03-26T17:13:45.317Z,44.66
2023-03-26T17:16:20.651Z,43.77
2023-03-26T17:18:58.941Z,44.07
2023-03-26T17:21:45.851Z,44.10
2023-03-26T17:24:26.618Z,44.27
2023-03-26T17:27:27.888Z,45.06
2023-03-26T17:30:31.149Z,44.27
2023-03-26T17:33:07.515Z,44.35
2023-03-26T17:35:42.564Z,44.41
2023-03-26T17:38:50.311Z,43.84
2023-03-26T17:41:51.708Z,44.32
2023-03-26T17:44:38.399Z,44.62
2023-03-26T17:47:19.231Z,43.85
2023-03-26T17:49:51.039Z,44.40
2023-03-26T17:52:25.219Z,44.17
2023-03-26T17:54:56.715Z,45.02
2023-03-26T17:57:31.112Z,44.39
2023-03-26T18:00:00.906Z,44.14
2023-03-26T18:02:36.847Z,44.48
2023-03-26T18:05:09.105Z,45.51
2023-03-26T18:08:11.737Z,44.49
2023-03-26T18:10:59.965Z,44.99
2023-03-26T18:14:01.530Z,45.22
2023-03-26T18:16:36.004Z,46.35
2023-03-26T18:19:17.604Z,45.83
2023-03-26T18:21:49.123Z,44.69
2023-03-26T18:24:22.766Z,45.36
2023-03-26T18:26:53.288Z,44.26
2023-03-26T18:29:24.213Z,45.47
2023-03-26T18:31:57.760Z,45.32
2023-03-26T18:34:30.924Z,45.19
2023-03-26T18:37:14.625Z,45.31
2023-03-26T18:39:42.892Z,45.43
2023-03-26T18:42:22.430Z,44.85
2023-03-26T18:44:51.823Z,44.97
2023-03-26T18:47:21.066Z,44.64
2023-03-26T18:49:55.436Z,45.53
2023-03-26T18:52:23.952Z,45.49
2023-03-26T18:54:54.619Z,44.82
2023-03-26T18:57:24.688Z,45.05
2023-03-26T18:59:54.751Z,45.08
2023-03-26T19:02:23.980Z,44.79
2023-03-26T19:04:56.796Z,45.29
2023-03-26T19:07:27.347Z,45.35
2023-03-26T19:09:56.740Z,44.82
2023-03-26T19:12:29.600Z,44.03
2023-03-26T19:15:04.191Z,43.88
2023-03-26T19:17:37.666Z,44.74
2023-03-26T19:20:14.897Z,44.92
2023-03-26T19:22:44.653Z,44.51
2023-03-26T19:25:22.773Z,45.61
2023-03-26T19:27:52.508Z,45.76
2023-03-26T19:30:29.691Z,46.34
2023-03-26T19:33:12.701Z,46.68
2023-03-26T19:35:46.156Z,46.19
2023-03-26T19:38:23.244Z,46.32
2023-03-26T19:40:53.301Z,46.47
2023-03-26T19:43:21.452Z,46.23
2023-03-26T19:45:59.318Z,46.09
2023-03-26T19:48:45.250Z,45.65
2023-03-26T19:51:22.626Z,45.54
2023-03-26T19:53:55.055Z,46.08
2023-03-26T19:56:23.676Z,45.84
2023-03-26T19:58:52.604Z,46.16
2023-03-26T20:01:23.844Z,45.23
2023-03-26T20:03:55.291Z,45.80
2023-03-26T20:06:41.577Z,46.52
2023-03-26T20:09:12.301Z,46.60
2023-03-26T20:11:40.846Z,46.67
2023-03-26T20:14:14.582Z,46.44
2023-03-26T20:16:44.389Z,46.63
2023-03-26T20:19:14.484Z,46.79
2023-03-26T20:21:44.994Z,47.04
2023-03-26T20:24:15.816Z,46.69
2023-03-26T20:26:44.385Z,47.05
2023-03-26T20:29:13.250Z,47.26
2023-03-26T20:31:42.443Z,47.27
2023-03-26T20:34:17.553Z,46.72
2023-03-26T20:36:48.150Z,46.93
2023-03-26T20:39:16.194Z,47.08
2023-03-26T20:41:48.031Z,47.22
2023-03-26T20:44:17.672Z,46.30
2023-03-26T20:46:48.182Z,45.97
2023-03-26T20:49:17.809Z,45.81
2023-03-26T20:51:47.728Z,45.55
2023-03-26T20:54:17.986Z,44.94
2023-03-26T20:56:47.767Z,45.28
2023-03-26T20:59:22.575Z,44.80
2023-03-26T21:01:51.792Z,45.36
2023-03-26T21:04:20.540Z,45.32
2023-03-26T21:06:50.859Z,45.33
2023-03-26T21:09:23.805Z,44.75
2023-03-26T21:12:01.823Z,45.20
2023-03-26T21:14:33.877Z,44.83
2023-03-26T21:17:02.803Z,45.76
2023-03-26T21:19:31.811Z,45.80
2023-03-26T21:22:14.688Z,45.96
2023-03-26T21:24:52.432Z,45.51
2023-03-26T21:27:28.126Z,45.56
2023-03-26T21:29:58.117Z,45.42
2023-03-26T21:32:27.005Z,45.85
2023-03-26T21:34:59.216Z,45.29
2023-03-26T21:37:29.500Z,45.46
2023-03-26T21:39:59.767Z,44.94
2023-03-26T21:42:29.302Z,44.78
2023-03-26T21:44:58.074Z,45.45
2023-03-26T21:47:27.085Z,45.20
2023-03-26T21:49:55.906Z,45.73
2023-03-26T21:52:24.585Z,45.85
2023-03-26T21:54:55.037Z,45.68
2023-03-26T21:57:40.551Z,46.17
2023-03-26T22:00:15.384Z,45.86
2023-03-26T22:02:57.288Z,46.43
2023-03-26T22:05:34.098Z,46.53
2023-03-26T22:08:03.613Z,46.46
2023-03-26T22:10:33.564Z,47.52
2023-03-26T22:13:01.570Z,47.57
2023-03-26T22:15:31.188Z,47.50
2023-03-26T22:18:03.240Z,47.36
2023-03-26T22:20:31.823Z,47.11
2023-03-26T22:23:00.952Z,46.81
2023-03-26T22:25:29.226Z,46.68
2023-03-26T22:27:58.667Z,46.84
2023-03-26T22:30:27.247Z,46.72
2023-03-26T22:32:55.798Z,46.45
2023-03-26T22:35:24.416Z,46.32
2023-03-26T22:37:52.640Z,46.59
2023-03-26T22:40:29.626Z,46.69
2023-03-26T22:42:59.235Z,46.94
2023-03-26T22:45:27.891Z,47.29
2023-03-26T22:48:03.413Z,47.26
2023-03-26T22:50:32.985Z,46.74
2023-03-26T22:53:00.978Z,46.39
2023-03-26T22:55:29.874Z,46.78
2023-03-26T22:57:59.586Z,46.17
2023-03-26T23:00:27.936Z,46.54
2023-03-26T23:03:00.074Z,46.33
2023-03-26T23:05:28.635Z,46.08
2023-03-26T23:07:57.084Z,46.28
2023-03-26T23:10:25.573Z,46.49
2023-03-26T23:12:54.045Z,46.61
2023-03-26T23:15:25.983Z,46.64
2023-03-26T23:17:54.551Z,46.81
2023-03-26T23:20:23.360Z,46.69
2023-03-26T23:22:51.400Z,46.67
2023-03-26T23:25:20.142Z,46.74
2023-03-26T23:27:48.504Z,47.15
2023-03-26T23:30:16.814Z,47.48
2023-03-26T23:32:47.180Z,47.47
2023-03-26T23:35:15.563Z,47.02
2023-03-26T23:37:43.616Z,47.22
2023-03-26T23:40:13.230Z,46.51
2023-03-26T23:42:41.730Z,46.54
2023-03-26T23:45:10.460Z,47.67
2023-03-26T23:47:42.579Z,49.05
2023-03-26T23:50:12.956Z,49.12
2023-03-26T23:52:41.386Z,49.51
2023-03-26T23:55:10.297Z,50.19
2023-03-26T23:57:38.268Z,49.18
